Baltic Marshall — C4KD2 — position and weather

sailwx.info

Track history (hours):
 
Tides and Currents Weather Stations Pressure Air Temp Water Temp Dewpoint Dewpoint Depression Visibility Wind Speed Wind Dir Waves Ship Positions

Baltic Marshall

Last reported at 2014-Sep-29 09:27 UTC. Time now 2014-Sep-30 11:49 UTC.
Position N 60°09' E 027°41'.

Length 183 m; draft 6.7 m.

Type: Tanker. MMSI: 212118000.

Date/timePositionNaut miles runAvg speedWind from/ knotsBaromVisibWave heightAir tempDewpointWater temp
2014-Sep-29 09:27N 60°09' E 027°41'2412.9
2014-Sep-29 07:33N 59°58' E 026°58'1413.1
2014-Sep-29 06:28N 59°58' E 026°29'1313.4
2014-Sep-29 05:28N 59°54' E 026°03'5613.4
2014-Sep-29 01:17N 59°42' E 024°15'1013.1
2014-Sep-29 00:33N 59°39' E 023°57'1313.2
2014-Sep-28 23:32N 59°35' E 023°31'20712.9
2014-Sep-28 07:32N 57°06' E 018°57'1313.4
2014-Sep-28 06:32N 56°55' E 018°42'1313.3
2014-Sep-28 05:33N 56°46' E 018°24'8113.1
2014-Sep-27 23:24N 55°57' E 016°29'3813.2
2014-Sep-27 20:33N 55°39' E 015°30'1313.4
2014-Sep-27 19:33N 55°33' E 015°09'1313.4
2014-Sep-27 18:33N 55°27' E 014°48'1313.0
2014-Sep-27 17:33N 55°18' E 014°31'1212.3
2014-Sep-27 16:33N 55°10' E 014°14'1313.0
2014-Sep-27 15:33N 55°10' E 013°52'1313.2
2014-Sep-27 14:33N 55°12' E 013°29'1313.3
2014-Sep-27 13:33N 55°14' E 013°06'1313.4
2014-Sep-27 12:33N 55°17' E 012°43'1211.7
2014-Sep-27 11:33N 55°29' E 012°41'1111.4
2014-Sep-27 10:34N 55°40' E 012°41'1413.8
2014-Sep-27 09:34N 55°54' E 012°39'1313.1
2014-Sep-27 08:33N 56°06' E 012°32'1010.4
2014-Sep-27 07:33N 56°12' E 012°17'1313.1
2014-Sep-27 06:33N 56°22' E 012°02'1413.9
2014-Sep-27 05:33N 56°36' E 011°56'1414.1
2014-Sep-27 04:32N 56°50' E 011°49'1413.9
2014-Sep-27 03:33N 57°02' E 011°40'1414.1
2014-Sep-27 02:33N 57°16' E 011°32'1413.9
2014-Sep-27 01:33N 57°29' E 011°22'1414.1
2014-Sep-27 00:33N 57°38' E 011°03'1413.9
2014-Sep-26 23:33N 57°48' E 010°44'1514.9
2014-Sep-26 22:33N 57°48' E 010°16'18812.3
2014-Sep-26 07:18N 55°31' E 006°21'7512.9
2014-Sep-26 01:28N 54°26' E 005°15'1212.7
2014-Sep-26 00:33N 54°16' E 005°06'1312.6
2014-Sep-25 23:32N 54°06' E 004°52'1312.8
2014-Sep-25 22:33N 53°57' E 004°38'113 4.7
2014-Sep-24 22:31N 52°11' E 003°34'0 0.0
2014-Sep-23 19:28N 52°11' E 003°34'0 0.0
2014-Sep-23 15:07N 52°11' E 003°34'0 0.0
2014-Sep-23 14:28N 52°11' E 003°34'0 0.0
2014-Sep-23 12:28N 52°11' E 003°34'0 0.1
2014-Sep-23 09:10N 52°11' E 003°34'0 0.0
2014-Sep-23 04:19N 52°11' E 003°34'0 0.0
2014-Sep-23 03:22N 52°11' E 003°34'0 0.0
2014-Sep-23 02:28N 52°11' E 003°34'0 0.0
2014-Sep-22 16:28N 52°11' E 003°34'0 0.1
2014-Sep-22 15:31N 52°11' E 003°34'0 0.0
2014-Sep-22 14:31N 52°11' E 003°34'0 0.0
2014-Sep-22 13:31N 52°11' E 003°34'0 0.0
2014-Sep-21 23:31N 52°11' E 003°34'0 0.0
2014-Sep-21 22:28N 52°11' E 003°34'0 0.0
2014-Sep-21 21:31N 52°11' E 003°34'0 0.0
2014-Sep-21 20:31N 52°11' E 003°34'0 0.0
2014-Sep-21 10:07N 52°11' E 003°34'0 0.0
2014-Sep-21 06:10N 52°11' E 003°34'0 0.0
2014-Sep-21 04:10N 52°11' E 003°34'0 0.0
2014-Sep-20 22:04N 52°11' E 003°34'0 0.0
2014-Sep-20 20:16N 52°11' E 003°34'0 0.0
2014-Sep-20 19:28N 52°11' E 003°34'1 0.3
2014-Sep-20 16:30N 52°10' E 003°34'1111.1
2014-Sep-20 15:33N 52°04' E 003°49'1211.5
2014-Sep-20 14:33N 51°59' E 004°05'5 5.0
2014-Sep-20 13:32N 51°56' E 004°12'0 0.0
2014-Sep-20 12:29N 51°56' E 004°12'0 0.0
2014-Sep-20 11:32N 51°56' E 004°12'0 0.0
2014-Sep-20 10:32N 51°56' E 004°12'0 0.0
2014-Sep-20 09:32N 51°56' E 004°12'0 0.0
2014-Sep-20 08:32N 51°56' E 004°12'0 0.0
2014-Sep-20 07:32N 51°56' E 004°12'0 0.0
2014-Sep-20 06:32N 51°56' E 004°12'0 0.0
2014-Sep-20 05:29N 51°56' E 004°12'0 0.0
2014-Sep-20 04:29N 51°56' E 004°12'0 0.0
2014-Sep-20 03:26N 51°56' E 004°12'0 0.0
2014-Sep-20 02:32N 51°56' E 004°12'0 0.0
2014-Sep-20 01:32N 51°56' E 004°12'0 0.0
2014-Sep-20 00:32N 51°56' E 004°12'0 0.0
2014-Sep-19 23:32N 51°56' E 004°12'0 0.0
2014-Sep-19 22:32N 51°56' E 004°12'0 0.0
2014-Sep-19 21:32N 51°56' E 004°12'0 0.0
2014-Sep-19 20:32N 51°56' E 004°12'0 0.0
2014-Sep-19 19:29N 51°56' E 004°12'0 0.0
2014-Sep-19 18:32N 51°56' E 004°12'0 0.0
2014-Sep-19 17:32N 51°56' E 004°12'0 0.0
2014-Sep-19 16:29N 51°56' E 004°12'0 0.0
2014-Sep-19 15:29N 51°56' E 004°12'0 0.0
2014-Sep-19 14:32N 51°56' E 004°12'0 0.0
2014-Sep-19 13:32N 51°56' E 004°12'0 0.0
2014-Sep-19 12:29N 51°56' E 004°12'0 0.0
2014-Sep-19 11:32N 51°56' E 004°12'0 0.0
2014-Sep-19 10:32N 51°56' E 004°12'0 0.0
2014-Sep-19 09:29N 51°56' E 004°12'  
Track history (hours):
 
Tides and Currents Weather Stations Pressure Air Temp Water Temp Dewpoint Dewpoint Depression Visibility Wind Speed Wind Dir Waves Ship Positions

Baltic Marshall

Last reported at 2014-Sep-29 09:27 UTC. Time now 2014-Sep-30 11:49 UTC.
Position N 60°09' E 027°41'.

Length 183 m; draft 6.7 m.

Type: Tanker. MMSI: 212118000.

Date/timePositionNaut miles runAvg speedWind from/ knotsBaromVisibWave heightAir tempDewpointWater temp
2014-Sep-29 09:27N 60°09' E 027°41'2412.9
2014-Sep-29 07:33N 59°58' E 026°58'1413.1
2014-Sep-29 06:28N 59°58' E 026°29'1313.4
2014-Sep-29 05:28N 59°54' E 026°03'5613.4
2014-Sep-29 01:17N 59°42' E 024°15'1013.1
2014-Sep-29 00:33N 59°39' E 023°57'1313.2
2014-Sep-28 23:32N 59°35' E 023°31'20712.9
2014-Sep-28 07:32N 57°06' E 018°57'1313.4
2014-Sep-28 06:32N 56°55' E 018°42'1313.3
2014-Sep-28 05:33N 56°46' E 018°24'8113.1
2014-Sep-27 23:24N 55°57' E 016°29'3813.2
2014-Sep-27 20:33N 55°39' E 015°30'1313.4
2014-Sep-27 19:33N 55°33' E 015°09'1313.4
2014-Sep-27 18:33N 55°27' E 014°48'1313.0
2014-Sep-27 17:33N 55°18' E 014°31'1212.3
2014-Sep-27 16:33N 55°10' E 014°14'1313.0
2014-Sep-27 15:33N 55°10' E 013°52'1313.2
2014-Sep-27 14:33N 55°12' E 013°29'1313.3
2014-Sep-27 13:33N 55°14' E 013°06'1313.4
2014-Sep-27 12:33N 55°17' E 012°43'1211.7
2014-Sep-27 11:33N 55°29' E 012°41'1111.4
2014-Sep-27 10:34N 55°40' E 012°41'1413.8
2014-Sep-27 09:34N 55°54' E 012°39'1313.1
2014-Sep-27 08:33N 56°06' E 012°32'1010.4
2014-Sep-27 07:33N 56°12' E 012°17'1313.1
2014-Sep-27 06:33N 56°22' E 012°02'1413.9
2014-Sep-27 05:33N 56°36' E 011°56'1414.1
2014-Sep-27 04:32N 56°50' E 011°49'1413.9
2014-Sep-27 03:33N 57°02' E 011°40'1414.1
2014-Sep-27 02:33N 57°16' E 011°32'1413.9
2014-Sep-27 01:33N 57°29' E 011°22'1414.1
2014-Sep-27 00:33N 57°38' E 011°03'1413.9
2014-Sep-26 23:33N 57°48' E 010°44'1514.9
2014-Sep-26 22:33N 57°48' E 010°16'18812.3
2014-Sep-26 07:18N 55°31' E 006°21'7512.9
2014-Sep-26 01:28N 54°26' E 005°15'1212.7
2014-Sep-26 00:33N 54°16' E 005°06'1312.6
2014-Sep-25 23:32N 54°06' E 004°52'1312.8
2014-Sep-25 22:33N 53°57' E 004°38'113 4.7
2014-Sep-24 22:31N 52°11' E 003°34'0 0.0
2014-Sep-23 19:28N 52°11' E 003°34'0 0.0
2014-Sep-23 15:07N 52°11' E 003°34'0 0.0
2014-Sep-23 14:28N 52°11' E 003°34'0 0.0
2014-Sep-23 12:28N 52°11' E 003°34'0 0.1
2014-Sep-23 09:10N 52°11' E 003°34'0 0.0
2014-Sep-23 04:19N 52°11' E 003°34'0 0.0
2014-Sep-23 03:22N 52°11' E 003°34'0 0.0
2014-Sep-23 02:28N 52°11' E 003°34'0 0.0
2014-Sep-22 16:28N 52°11' E 003°34'0 0.1
2014-Sep-22 15:31N 52°11' E 003°34'0 0.0
2014-Sep-22 14:31N 52°11' E 003°34'0 0.0
2014-Sep-22 13:31N 52°11' E 003°34'0 0.0
2014-Sep-21 23:31N 52°11' E 003°34'0 0.0
2014-Sep-21 22:28N 52°11' E 003°34'0 0.0
2014-Sep-21 21:31N 52°11' E 003°34'0 0.0
2014-Sep-21 20:31N 52°11' E 003°34'0 0.0
2014-Sep-21 10:07N 52°11' E 003°34'0 0.0
2014-Sep-21 06:10N 52°11' E 003°34'0 0.0
2014-Sep-21 04:10N 52°11' E 003°34'0 0.0
2014-Sep-20 22:04N 52°11' E 003°34'0 0.0
2014-Sep-20 20:16N 52°11' E 003°34'0 0.0
2014-Sep-20 19:28N 52°11' E 003°34'1 0.3
2014-Sep-20 16:30N 52°10' E 003°34'1111.1
2014-Sep-20 15:33N 52°04' E 003°49'1211.5
2014-Sep-20 14:33N 51°59' E 004°05'5 5.0
2014-Sep-20 13:32N 51°56' E 004°12'0 0.0
2014-Sep-20 12:29N 51°56' E 004°12'0 0.0
2014-Sep-20 11:32N 51°56' E 004°12'0 0.0
2014-Sep-20 10:32N 51°56' E 004°12'0 0.0
2014-Sep-20 09:32N 51°56' E 004°12'0 0.0
2014-Sep-20 08:32N 51°56' E 004°12'0 0.0
2014-Sep-20 07:32N 51°56' E 004°12'0 0.0
2014-Sep-20 06:32N 51°56' E 004°12'0 0.0
2014-Sep-20 05:29N 51°56' E 004°12'0 0.0
2014-Sep-20 04:29N 51°56' E 004°12'0 0.0
2014-Sep-20 03:26N 51°56' E 004°12'0 0.0
2014-Sep-20 02:32N 51°56' E 004°12'0 0.0
2014-Sep-20 01:32N 51°56' E 004°12'0 0.0
2014-Sep-20 00:32N 51°56' E 004°12'0 0.0
2014-Sep-19 23:32N 51°56' E 004°12'0 0.0
2014-Sep-19 22:32N 51°56' E 004°12'0 0.0
2014-Sep-19 21:32N 51°56' E 004°12'0 0.0
2014-Sep-19 20:32N 51°56' E 004°12'0 0.0
2014-Sep-19 19:29N 51°56' E 004°12'0 0.0
2014-Sep-19 18:32N 51°56' E 004°12'0 0.0
2014-Sep-19 17:32N 51°56' E 004°12'0 0.0
2014-Sep-19 16:29N 51°56' E 004°12'0 0.0
2014-Sep-19 15:29N 51°56' E 004°12'0 0.0
2014-Sep-19 14:32N 51°56' E 004°12'0 0.0
2014-Sep-19 13:32N 51°56' E 004°12'0 0.0
2014-Sep-19 12:29N 51°56' E 004°12'0 0.0
2014-Sep-19 11:32N 51°56' E 004°12'0 0.0
2014-Sep-19 10:32N 51°56' E 004°12'0 0.0
2014-Sep-19 09:29N 51°56' E 004°12'  

Dump ship's entire track history